Time;durP1;ratioP1;P1;durP2;ratioP2;P2;SDS_P1;SDS_P2;PMS_P1;PMS_P2;Temp;Humidity;BMP_temperature;BMP_pressure;BME280_temperature;BME280_humidity;BME280_pressure;Samples;Min_cycle;Max_cycle;Signal;HPM_P1;HPM_P2
2023/01/06 00:00:15;;;;;;;26.07;5.90;;;;;;;19.23;57.26;100956.22;5114912;28;20178;-61
2023/01/06 00:02:40;;;;;;;22.10;6.17;;;;;;;19.24;57.35;100949.28;5114870;28;20173;-61
2023/01/06 00:05:06;;;;;;;17.07;6.17;;;;;;;19.23;57.38;100947.63;5074958;28;20203;-61
2023/01/06 00:07:32;;;;;;;10.57;4.70;;;;;;;19.23;57.32;100941.06;5083791;28;20186;-61
2023/01/06 00:09:57;;;;;;;14.40;5.33;;;;;;;19.21;57.38;100946.28;5093694;28;20175;-61
2023/01/06 00:12:25;;;;;;;19.03;6.50;;;;;;;19.23;57.33;100943.91;5096247;28;20209;-61
2023/01/06 00:14:51;;;;;;;16.57;6.60;;;;;;;19.21;57.46;100931.97;5112572;28;20170;-61
2023/01/06 00:17:16;;;;;;;12.80;6.13;;;;;;;19.20;57.24;100941.75;5109753;28;20847;-61
2023/01/06 00:19:42;;;;;;;15.23;5.90;;;;;;;19.24;57.35;100937.81;5114070;28;20767;-61
2023/01/06 00:22:07;;;;;;;11.83;5.10;;;;;;;19.23;57.43;100939.03;5113639;28;20504;-61
2023/01/06 00:24:33;;;;;;;13.17;5.70;;;;;;;19.23;57.35;100938.19;5110829;28;20941;-60
2023/01/06 00:26:59;;;;;;;14.23;5.70;;;;;;;19.23;57.35;100933.31;5110754;28;20192;-60
2023/01/06 00:29:25;;;;;;;14.60;5.77;;;;;;;19.22;57.40;100931.63;5100420;28;20182;-61
2023/01/06 00:31:50;;;;;;;14.30;4.90;;;;;;;19.21;57.37;100918.47;5114204;28;20223;-60
2023/01/06 00:34:16;;;;;;;20.17;5.10;;;;;;;19.21;57.37;100923.41;5111388;28;20428;-60
2023/01/06 00:36:41;;;;;;;13.57;4.90;;;;;;;19.20;57.31;100921.72;5109139;28;20189;-61
2023/01/06 00:39:07;;;;;;;16.60;4.93;;;;;;;19.21;57.33;100915.63;5093835;28;20664;-60
2023/01/06 00:44:16;;;;;;;14.10;4.97;;;;;;;19.23;57.37;100918.16;5072847;28;20249;-60
2023/01/06 00:46:41;;;;;;;15.23;5.67;;;;;;;19.20;57.31;100921.72;5072905;28;20398;-60
2023/01/06 00:49:07;;;;;;;13.93;5.13;;;;;;;19.23;57.12;100913.28;5092085;28;20194;-61
2023/01/06 00:51:33;;;;;;;14.23;5.10;;;;;;;19.22;57.52;100917.31;5093551;28;20216;-60
2023/01/06 00:53:59;;;;;;;15.47;6.03;;;;;;;19.21;57.18;100915.63;5092865;28;20185;-60
2023/01/06 00:56:24;;;;;;;14.83;5.57;;;;;;;19.20;57.37;100911.09;5074547;28;20424;-60
2023/01/06 00:58:50;;;;;;;11.53;4.67;;;;;;;19.20;57.51;100910.25;5106408;28;20181;-61
2023/01/06 01:01:15;;;;;;;9.90;5.20;;;;;;;19.19;57.41;100912.31;5111746;28;20165;-61
2023/01/06 01:03:41;;;;;;;12.97;4.80;;;;;;;19.20;57.40;100904.53;5093672;28;20190;-61
2023/01/06 01:06:07;;;;;;;9.20;4.70;;;;;;;19.21;57.29;100909.91;5072656;28;20202;-61
2023/01/06 01:08:32;;;;;;;13.63;6.10;;;;;;;19.21;57.30;100911.94;5087807;28;20185;-60
2023/01/06 01:11:02;;;;;;;12.07;4.73;;;;;;;19.19;57.36;100912.31;5092618;28;20835;-61
2023/01/06 01:13:28;;;;;;;11.73;4.40;;;;;;;19.18;57.47;100910.66;5109766;28;20302;-60
2023/01/06 01:15:53;;;;;;;13.67;5.17;;;;;;;19.18;57.47;100916.38;5113099;28;20411;-61
2023/01/06 01:18:18;;;;;;;10.50;4.73;;;;;;;19.20;57.40;100913.97;5104318;28;20226;-61
2023/01/06 01:20:45;;;;;;;10.33;4.23;;;;;;;19.20;57.28;100913.13;5113412;28;20238;-60
2023/01/06 01:23:11;;;;;;;13.33;5.33;;;;;;;19.19;57.64;100918.03;5113150;28;20252;-61
2023/01/06 01:25:36;;;;;;;12.40;4.70;;;;;;;19.19;57.33;100923.75;5113218;28;20404;-60
2023/01/06 01:28:01;;;;;;;10.20;4.90;;;;;;;19.19;57.50;100920.06;5109070;28;20238;-61
2023/01/06 01:30:27;;;;;;;11.10;5.40;;;;;;;19.17;57.59;100908.16;5112883;28;20262;-61
2023/01/06 01:32:52;;;;;;;10.40;4.40;;;;;;;19.18;57.50;100916.38;5112845;28;20227;-61
2023/01/06 01:35:18;;;;;;;9.93;4.70;;;;;;;19.19;57.35;100917.19;5112760;28;20745;-61
2023/01/06 01:37:43;;;;;;;11.47;5.47;;;;;;;19.17;57.46;100919.59;5100333;28;20200;-61
2023/01/06 01:40:09;;;;;;;11.93;4.50;;;;;;;19.16;57.33;100918.75;5092375;28;20174;-60
2023/01/06 01:42:34;;;;;;;12.43;5.07;;;;;;;19.19;57.35;100923.75;5093912;28;20312;-61
2023/01/06 01:45:13;;;;;;;11.83;4.83;;;;;;;19.18;57.23;100921.25;5092984;28;20231;-60
2023/01/06 01:47:46;;;;;;;12.63;4.87;;;;;;;19.17;57.44;100923.28;5074716;28;20230;-60
2023/01/06 01:50:29;;;;;;;10.10;4.67;;;;;;;19.14;57.52;100921.19;5076315;28;20432;-61
2023/01/06 01:53:16;;;;;;;10.40;4.67;;;;;;;19.14;57.41;100917.47;5074538;28;20436;-61
2023/01/06 01:55:41;;;;;;;9.10;4.33;;;;;;;19.17;57.22;100925.34;5091864;28;20411;-60
2023/01/06 01:58:13;;;;;;;13.43;5.00;;;;;;;19.15;57.31;100931.41;5076066;28;20432;-61
2023/01/06 02:00:39;;;;;;;9.10;4.73;;;;;;;19.14;57.57;100926.91;5090778;28;20177;-62
2023/01/06 02:03:04;;;;;;;9.20;4.67;;;;;;;19.16;57.44;100924.50;5096425;28;20478;-63
2023/01/06 02:05:29;;;;;;;13.23;5.17;;;;;;;19.16;57.50;100930.22;5101900;28;20461;-63
2023/01/06 02:07:56;;;;;;;12.13;4.20;;;;;;;19.16;57.46;100924.50;5104183;28;20186;-63
2023/01/06 02:10:22;;;;;;;11.70;4.67;;;;;;;19.16;57.43;100917.94;5070262;28;20254;-63
2023/01/06 02:12:49;;;;;;;9.23;4.70;;;;;;;19.13;57.48;100919.53;5106455;28;20740;-62
2023/01/06 02:15:27;;;;;;;10.67;4.43;;;;;;;19.14;57.75;100920.34;5122712;28;20181;-63
2023/01/06 02:18:03;;;;;;;13.50;4.67;;;;;;;19.14;57.52;100923.19;5095138;28;20925;-63
2023/01/06 02:20:45;;;;;;;11.70;5.30;;;;;;;19.12;57.60;100917.84;5106707;28;20420;-62
2023/01/06 02:23:55;;;;;;;15.13;4.67;;;;;;;19.15;57.36;100922.00;5110910;28;20812;-62
2023/01/06 02:27:07;;;;;;;10.97;4.50;;;;;;;19.12;57.82;100917.03;5082823;28;20423;-63
2023/01/06 02:30:27;;;;;;;9.33;3.87;;;;;;;19.14;57.54;100926.91;5106475;28;20534;-63
2023/01/06 02:33:04;;;;;;;8.53;4.53;;;;;;;19.13;57.50;100924.41;5060681;28;20457;-63
2023/01/06 02:35:36;;;;;;;15.03;4.97;;;;;;;19.17;56.99;100931.06;5084566;28;20471;-63
2023/01/06 02:38:15;;;;;;;10.93;4.13;;;;;;;19.14;57.45;100926.06;5104994;28;20446;-63
2023/01/06 02:40:49;;;;;;;8.47;4.27;;;;;;;19.12;57.42;100929.28;5112809;28;20437;-63
2023/01/06 02:43:23;;;;;;;8.93;4.00;;;;;;;19.12;57.43;100923.56;5129128;28;20465;-63
2023/01/06 02:46:06;;;;;;;10.27;4.57;;;;;;;19.13;57.54;100915.81;5113220;28;20458;-63
2023/01/06 02:49:10;;;;;;;11.90;4.87;;;;;;;19.15;57.54;100924.84;5091840;28;20404;-63
2023/01/06 02:51:45;;;;;;;11.70;4.20;;;;;;;19.11;57.49;100919.03;5095045;28;20448;-62
2023/01/06 02:54:15;;;;;;;10.17;4.47;;;;;;;19.12;57.56;100917.03;5103649;28;20781;-63
2023/01/06 02:56:48;;;;;;;9.10;3.97;;;;;;;19.09;57.61;100912.88;5112774;28;20437;-63
2023/01/06 02:59:19;;;;;;;10.33;3.73;;;;;;;19.10;57.56;100908.81;5108383;28;20427;-63
2023/01/06 03:01:45;;;;;;;8.93;4.33;;;;;;;19.14;57.60;100915.47;5096220;28;20456;-62
2023/01/06 03:04:16;;;;;;;10.70;5.07;;;;;;;19.08;57.71;100916.94;5083662;28;20460;-62
2023/01/06 03:06:43;;;;;;;10.13;3.80;;;;;;;19.07;57.70;100915.25;5075773;28;20524;-62
2023/01/06 03:09:13;;;;;;;11.40;3.80;;;;;;;19.10;57.52;100919.41;5117201;28;20431;-62
2023/01/06 03:11:38;;;;;;;9.87;4.33;;;;;;;19.10;57.38;100919.41;5111914;28;20461;-63
2023/01/06 03:14:22;;;;;;;8.03;4.00;;;;;;;19.08;57.48;100918.97;5108658;28;20434;-63
2023/01/06 03:16:47;;;;;;;11.93;4.07;;;;;;;19.08;57.53;100916.94;5113880;28;20498;-63
2023/01/06 03:19:13;;;;;;;11.93;4.80;;;;;;;19.10;57.50;100911.66;5131097;28;20411;-63
2023/01/06 03:21:40;;;;;;;8.80;3.73;;;;;;;19.09;57.24;100921.47;5131211;28;20158;-62
2023/01/06 03:24:06;;;;;;;8.23;3.70;;;;;;;19.08;57.54;100911.22;5088788;28;20185;-62
2023/01/06 03:26:32;;;;;;;10.93;4.13;;;;;;;19.11;57.56;100903.91;5126587;28;20458;-63
2023/01/06 03:28:58;;;;;;;11.50;5.00;;;;;;;19.08;57.37;100910.38;5108473;28;20415;-62
2023/01/06 03:31:40;;;;;;;10.73;4.13;;;;;;;19.07;57.55;100906.66;5125969;28;20487;-62
2023/01/06 03:34:27;;;;;;;6.80;3.77;;;;;;;19.08;57.65;100904.66;5108727;28;20186;-63
2023/01/06 03:37:09;;;;;;;7.73;3.87;;;;;;;19.09;57.31;100912.88;5105474;28;20434;-63
2023/01/06 03:39:42;;;;;;;12.37;4.37;;;;;;;19.07;57.45;100903.81;5108837;28;20432;-63
2023/01/06 03:45:15;;;;;;;9.40;3.50;;;;;;;19.08;57.66;100916.94;4986169;28;20531;-62
2023/01/06 03:48:13;;;;;;;7.57;3.80;;;;;;;19.07;57.44;100909.53;4983751;28;20827;-63
2023/01/06 03:50:44;;;;;;;10.10;3.70;;;;;;;19.06;57.40;100913.59;5076955;28;20441;-63
2023/01/06 03:53:33;;;;;;;8.97;4.03;;;;;;;19.07;57.46;100912.41;5049440;28;20426;-62
2023/01/06 03:56:14;;;;;;;6.87;3.43;;;;;;;19.05;57.64;100905.38;5090927;28;20437;-62
2023/01/06 03:58:39;;;;;;;7.80;3.80;;;;;;;19.06;57.69;100905.00;5106123;28;20415;-62
2023/01/06 04:01:04;;;;;;;7.07;3.50;;;;;;;19.04;57.55;100907.44;5070624;28;20770;-62
2023/01/06 04:03:30;;;;;;;9.30;3.53;;;;;;;19.07;57.61;100909.53;5056847;28;20203;-62
2023/01/06 04:05:55;;;;;;;13.33;3.90;;;;;;;19.04;57.63;100904.56;5065907;28;20667;-62
2023/01/06 04:08:21;;;;;;;10.60;4.20;;;;;;;19.07;57.31;100906.66;5085994;28;20185;-62
2023/01/06 04:10:46;;;;;;;9.50;3.77;;;;;;;19.07;57.52;100900.94;5105470;28;20186;-62
2023/01/06 04:13:12;;;;;;;7.60;3.50;;;;;;;19.09;57.36;100903.44;5104314;28;20163;-62
2023/01/06 04:15:37;;;;;;;8.20;3.63;;;;;;;19.08;57.56;100899.78;5086852;28;20173;-63
2023/01/06 04:18:02;;;;;;;9.60;4.13;;;;;;;19.06;57.31;100899.28;5083752;28;20163;-62
2023/01/06 04:20:29;;;;;;;8.60;3.93;;;;;;;19.06;57.36;100898.47;5090317;28;20190;-62
2023/01/06 04:22:55;;;;;;;7.10;3.33;;;;;;;19.06;57.33;100895.63;5104308;28;20722;-63
2023/01/06 04:25:21;;;;;;;9.97;3.17;;;;;;;19.05;57.49;100893.94;5103848;28;20397;-62
2023/01/06 04:27:46;;;;;;;6.67;3.63;;;;;;;19.05;57.62;100882.47;5094816;28;20418;-62
2023/01/06 04:30:12;;;;;;;8.93;3.73;;;;;;;19.06;57.62;100884.97;5095069;28;20190;-62
2023/01/06 04:32:38;;;;;;;7.87;3.30;;;;;;;19.05;57.23;100880.47;5103340;28;20186;-62
2023/01/06 04:35:03;;;;;;;12.40;3.73;;;;;;;19.04;57.34;100880.84;5098646;28;20230;-62
2023/01/06 04:37:29;;;;;;;5.53;3.10;;;;;;;19.05;57.46;100877.59;5081860;28;20825;-62
2023/01/06 04:39:54;;;;;;;8.87;3.00;;;;;;;19.07;57.46;100880.91;5081819;28;20877;-62
2023/01/06 04:42:20;;;;;;;8.53;3.50;;;;;;;19.06;57.37;100878.44;5093127;28;20183;-62
2023/01/06 04:44:45;;;;;;;8.40;4.43;;;;;;;19.05;57.61;100877.59;5021363;28;20233;-62
2023/01/06 04:47:10;;;;;;;8.70;3.93;;;;;;;19.04;57.38;100870.22;5017726;28;20197;-62
2023/01/06 04:49:36;;;;;;;8.53;3.43;;;;;;;19.06;57.39;100873.53;5020029;28;20188;-62
2023/01/06 04:52:01;;;;;;;9.10;3.93;;;;;;;19.06;57.21;100872.72;5004209;28;20193;-62
2023/01/06 04:54:27;;;;;;;7.53;2.87;;;;;;;19.05;57.46;100871.03;5001346;28;20339;-62
2023/01/06 04:56:52;;;;;;;7.13;3.33;;;;;;;19.06;57.36;100873.53;5003214;28;20182;-62
2023/01/06 04:59:18;;;;;;;8.87;3.80;;;;;;;19.03;57.47;100877.16;5000837;28;20213;-62
2023/01/06 05:01:43;;;;;;;7.83;3.50;;;;;;;19.04;57.55;100875.09;5002694;28;20181;-62
2023/01/06 05:04:09;;;;;;;5.80;3.30;;;;;;;19.08;57.41;100865.44;5001072;28;20683;-62
2023/01/06 05:06:34;;;;;;;6.53;3.43;;;;;;;19.03;57.43;100860.00;5000630;28;20162;-62
2023/01/06 05:09:00;;;;;;;6.13;2.83;;;;;;;19.06;57.52;100867.81;5012026;28;20196;-62
2023/01/06 05:11:25;;;;;;;7.13;3.23;;;;;;;19.06;57.34;100862.09;5020615;28;20255;-62
2023/01/06 05:13:51;;;;;;;7.07;3.40;;;;;;;19.05;57.35;100866.16;4982775;28;20272;-62
2023/01/06 05:16:36;;;;;;;11.30;3.93;;;;;;;19.04;57.49;100858.78;5000186;28;20185;-62
2023/01/06 05:19:02;;;;;;;5.93;3.30;;;;;;;19.06;57.41;100872.72;5003925;28;20504;-62
2023/01/06 05:21:28;;;;;;;6.70;3.30;;;;;;;19.07;57.32;100857.22;5002545;28;20451;-62
2023/01/06 05:23:53;;;;;;;4.93;2.40;;;;;;;19.05;57.49;100865.31;4999830;28;20184;-62
2023/01/06 05:26:24;;;;;;;6.10;2.67;;;;;;;19.06;57.61;100861.28;4988638;28;20207;-62
2023/01/06 05:28:50;;;;;;;10.67;3.37;;;;;;;19.04;57.46;100858.78;5020346;28;20170;-62
2023/01/06 05:31:15;;;;;;;7.80;3.20;;;;;;;19.05;57.09;100866.16;5002055;28;20444;-62
2023/01/06 05:33:41;;;;;;;4.63;2.87;;;;;;;19.07;57.41;100860.88;5002321;28;20213;-62
2023/01/06 05:36:08;;;;;;;7.03;3.37;;;;;;;19.06;57.42;100870.66;5001223;28;20679;-62
2023/01/06 05:38:34;;;;;;;6.60;2.97;;;;;;;19.06;57.34;100869.84;5009178;28;20189;-62
2023/01/06 05:40:59;;;;;;;5.23;2.73;;;;;;;19.06;57.24;100867.00;5020611;28;20427;-62
2023/01/06 05:43:25;;;;;;;7.23;2.63;;;;;;;19.08;57.09;100871.16;5018628;28;20247;-62
2023/01/06 05:45:51;;;;;;;9.97;4.10;;;;;;;19.07;57.24;100875.19;5019200;28;20197;-62
2023/01/06 05:48:16;;;;;;;7.03;3.80;;;;;;;19.05;57.33;100874.75;5019626;28;20181;-62
2023/01/06 05:50:42;;;;;;;7.67;2.70;;;;;;;19.05;57.26;100874.75;5015423;28;20462;-62
2023/01/06 05:53:07;;;;;;;8.23;3.23;;;;;;;19.05;57.32;100877.59;5020603;28;20161;-62
2023/01/06 05:55:33;;;;;;;6.87;3.50;;;;;;;19.08;57.23;100884.63;5018422;28;20739;-62
2023/01/06 05:57:58;;;;;;;8.20;3.13;;;;;;;19.08;57.27;100881.75;5001467;28;20585;-62
2023/01/06 06:00:23;;;;;;;5.97;2.90;;;;;;;19.06;57.43;100884.97;5000623;28;20177;-63
2023/01/06 06:02:49;;;;;;;5.40;2.73;;;;;;;19.07;57.22;100892.34;5002448;28;20178;-62
2023/01/06 06:05:14;;;;;;;7.07;3.40;;;;;;;19.09;57.20;100878.53;5002664;28;20204;-62
2023/01/06 06:07:40;;;;;;;5.70;2.57;;;;;;;19.09;57.18;100892.00;5001728;28;20181;-62
2023/01/06 06:10:06;;;;;;;7.07;3.03;;;;;;;19.08;57.28;100905.50;4999279;28;20533;-62
2023/01/06 06:12:32;;;;;;;9.90;3.90;;;;;;;19.09;57.53;100910.00;5000197;28;20205;-62
2023/01/06 06:14:57;;;;;;;5.90;2.93;;;;;;;19.08;57.23;100910.38;5009977;28;20428;-62
2023/01/06 06:17:24;;;;;;;7.77;2.80;;;;;;;19.10;56.96;100911.66;5002675;28;20211;-62
2023/01/06 06:19:49;;;;;;;4.77;2.67;;;;;;;19.09;57.37;100912.03;4999998;28;20177;-62
2023/01/06 06:22:15;;;;;;;8.43;2.83;;;;;;;19.09;57.33;100924.31;5003047;28;20429;-62
2023/01/06 06:24:40;;;;;;;7.50;3.93;;;;;;;19.08;57.27;100916.94;5014300;28;20215;-62
2023/01/06 06:27:05;;;;;;;7.20;3.50;;;;;;;19.07;57.31;100926.69;5020353;28;20162;-62
2023/01/06 06:29:31;;;;;;;5.20;2.73;;;;;;;19.08;57.16;100928.38;5019307;28;20854;-63
2023/01/06 06:31:56;;;;;;;8.00;3.20;;;;;;;19.08;57.14;100928.38;5017549;28;20202;-62
2023/01/06 06:34:22;;;;;;;8.00;3.53;;;;;;;19.11;57.17;100932.53;5018040;28;20208;-62
2023/01/06 06:36:47;;;;;;;8.13;3.20;;;;;;;19.07;57.26;100923.84;5002178;28;20169;-62
2023/01/06 06:39:12;;;;;;;7.80;3.17;;;;;;;19.09;57.06;100932.91;5012806;28;20203;-62
2023/01/06 06:41:38;;;;;;;5.10;2.40;;;;;;;19.10;57.26;100936.59;5019775;28;20182;-62
2023/01/06 06:44:04;;;;;;;5.50;2.93;;;;;;;19.10;56.96;100943.16;5015874;28;20228;-62
2023/01/06 06:46:29;;;;;;;9.10;2.77;;;;;;;19.07;57.36;100937.34;5008278;28;20551;-62
2023/01/06 06:48:54;;;;;;;5.33;2.73;;;;;;;19.08;57.89;100944.72;4999315;28;20657;-62
2023/01/06 06:51:20;;;;;;;6.53;3.20;;;;;;;19.08;57.19;100950.44;5014939;28;20205;-62
2023/01/06 06:53:46;;;;;;;4.47;2.70;;;;;;;19.09;57.23;100950.06;5018798;28;20181;-62
2023/01/06 06:56:12;;;;;;;6.20;3.10;;;;;;;19.09;57.10;100946.38;5012502;28;20185;-62
2023/01/06 06:58:38;;;;;;;5.90;3.27;;;;;;;19.08;57.07;100942.69;5019618;28;20177;-62
2023/01/06 07:01:07;;;;;;;6.37;3.00;;;;;;;19.11;56.98;100939.06;5021976;28;20757;-62
2023/01/06 07:03:33;;;;;;;6.50;2.90;;;;;;;19.09;56.71;100934.94;5016472;28;20166;-62
2023/01/06 07:05:58;;;;;;;5.43;2.53;;;;;;;19.09;57.06;100946.38;4993416;28;20468;-62
2023/01/06 07:08:24;;;;;;;4.30;2.53;;;;;;;19.10;57.15;100940.28;4985872;28;20514;-62
2023/01/06 07:10:50;;;;;;;6.10;2.60;;;;;;;19.12;57.12;100946.47;5002875;28;20262;-62
2023/01/06 07:13:16;;;;;;;5.63;2.80;;;;;;;19.10;56.90;100943.16;5002426;28;20170;-62
2023/01/06 07:15:41;;;;;;;6.33;2.60;;;;;;;19.09;57.30;100941.50;5005895;28;20193;-62
2023/01/06 07:18:07;;;;;;;5.83;2.70;;;;;;;19.10;57.18;100945.16;5003210;28;20173;-62
2023/01/06 07:20:33;;;;;;;6.37;3.03;;;;;;;19.12;57.11;100957.09;5005749;28;20190;-62
2023/01/06 07:22:58;;;;;;;5.60;2.37;;;;;;;19.12;56.79;100966.50;5002006;28;20632;-62
2023/01/06 07:25:24;;;;;;;8.87;2.90;;;;;;;19.12;57.05;100969.34;5002402;28;20432;-62
2023/01/06 07:27:56;;;;;;;5.37;2.50;;;;;;;19.09;57.02;100967.25;5006299;28;20196;-62
2023/01/06 07:30:22;;;;;;;6.37;2.80;;;;;;;19.09;57.08;100975.84;5002059;28;20629;-62
2023/01/06 07:32:47;;;;;;;6.23;2.77;;;;;;;19.13;57.16;100975.94;5002666;28;20460;-62
2023/01/06 07:35:13;;;;;;;8.63;3.23;;;;;;;19.11;56.87;100973.44;5003195;28;20201;-62
2023/01/06 07:37:38;;;;;;;6.00;2.57;;;;;;;19.13;57.02;100973.91;4999994;28;20673;-62
2023/01/06 07:40:04;;;;;;;5.13;2.80;;;;;;;19.13;56.93;100970.19;5001280;28;20192;-62
2023/01/06 07:42:30;;;;;;;5.17;2.50;;;;;;;19.11;56.94;100964.84;5017752;28;20241;-62
2023/01/06 07:44:56;;;;;;;6.63;2.97;;;;;;;19.13;57.08;100973.06;5020963;28;20480;-62
2023/01/06 07:47:22;;;;;;;5.87;2.60;;;;;;;19.13;56.89;100971.03;5017370;28;20501;-62
2023/01/06 07:49:47;;;;;;;5.00;2.20;;;;;;;19.10;56.97;100970.94;5021837;28;20625;-62
2023/01/06 07:52:13;;;;;;;7.63;2.93;;;;;;;19.07;57.09;100978.22;5020237;28;20217;-62
2023/01/06 07:54:38;;;;;;;5.70;2.53;;;;;;;19.09;56.94;100981.56;5019122;28;20211;-62
2023/01/06 07:57:04;;;;;;;5.47;2.50;;;;;;;19.10;57.16;100970.94;5020629;28;20162;-63
2023/01/06 07:59:29;;;;;;;6.33;2.60;;;;;;;19.11;56.99;100976.28;5008181;28;20185;-62
2023/01/06 08:01:54;;;;;;;5.03;2.73;;;;;;;19.17;56.89;100982.59;5001857;28;20189;-62
2023/01/06 08:04:20;;;;;;;5.90;2.70;;;;;;;19.11;56.99;100987.72;5010900;28;20206;-62
2023/01/06 08:06:45;;;;;;;7.80;3.03;;;;;;;19.13;56.88;100975.94;5001568;28;20177;-62
2023/01/06 08:09:11;;;;;;;4.50;2.10;;;;;;;19.12;56.93;100986.53;5011320;28;20226;-62
2023/01/06 08:11:36;;;;;;;4.40;2.37;;;;;;;19.11;57.16;100984.88;5020300;28;20200;-62
2023/01/06 08:14:02;;;;;;;4.00;2.63;;;;;;;19.13;56.88;100985.34;5020823;28;20161;-62
2023/01/06 08:16:27;;;;;;;4.90;2.57;;;;;;;19.12;56.94;100991.44;5018825;28;20158;-62
2023/01/06 08:18:52;;;;;;;8.97;2.73;;;;;;;19.10;56.89;100994.66;5018320;28;20185;-62
2023/01/06 08:21:18;;;;;;;4.40;2.30;;;;;;;19.13;56.93;100999.66;5021319;28;20157;-62
2023/01/06 08:23:43;;;;;;;5.33;2.83;;;;;;;19.12;56.87;100986.53;5017036;28;20525;-62
2023/01/06 08:26:12;;;;;;;5.53;2.40;;;;;;;19.10;56.97;100988.94;5005913;28;20177;-62
2023/01/06 08:28:38;;;;;;;7.87;2.90;;;;;;;19.14;56.96;101001.31;5001871;28;20162;-62
2023/01/06 08:31:03;;;;;;;5.93;2.93;;;;;;;19.13;57.02;101007.41;5003836;28;20464;-62
2023/01/06 08:33:29;;;;;;;4.67;2.43;;;;;;;19.14;56.81;101007.06;5002193;28;20198;-62
2023/01/06 08:36:02;;;;;;;5.30;2.50;;;;;;;19.11;56.88;101010.63;5001044;28;20174;-62
2023/01/06 08:38:28;;;;;;;5.00;2.60;;;;;;;19.14;56.84;101014.78;5003121;28;20196;-62
2023/01/06 08:40:53;;;;;;;4.30;2.20;;;;;;;19.11;56.84;101007.78;5000135;28;20413;-62
2023/01/06 08:43:19;;;;;;;4.00;2.00;;;;;;;19.13;57.26;101011.13;5000516;28;20238;-62
2023/01/06 08:45:44;;;;;;;3.03;1.83;;;;;;;19.14;56.75;101015.63;5000736;28;20238;-62
2023/01/06 08:48:10;;;;;;;4.50;2.53;;;;;;;19.13;56.99;101010.28;5013055;28;20189;-62
2023/01/06 08:50:37;;;;;;;5.03;2.37;;;;;;;19.13;56.97;101016.84;5018904;28;20180;-62
2023/01/06 08:53:03;;;;;;;5.83;2.43;;;;;;;19.16;56.84;101018.94;5013330;28;20250;-62
2023/01/06 08:55:28;;;;;;;5.83;2.50;;;;;;;19.17;56.87;101016.94;5020344;28;20428;-62
2023/01/06 08:57:54;;;;;;;5.73;2.60;;;;;;;19.15;56.93;101022.16;5020317;28;20556;-62
2023/01/06 09:00:19;;;;;;;5.20;2.30;;;;;;;19.17;56.69;101017.75;5018325;28;20180;-62
2023/01/06 09:02:44;;;;;;;4.97;2.47;;;;;;;19.14;56.88;101009.06;5018099;28;20186;-62
2023/01/06 09:05:10;;;;;;;3.80;2.20;;;;;;;19.16;56.99;101012.41;4999485;28;20311;-62
2023/01/06 09:07:35;;;;;;;6.83;2.70;;;;;;;19.17;56.87;101014.88;5002215;28;20656;-62
2023/01/06 09:10:01;;;;;;;5.33;2.10;;;;;;;19.13;56.97;101016.84;4982431;28;20186;-62
2023/01/06 09:12:26;;;;;;;4.03;2.30;;;;;;;19.18;56.42;101012.88;4982766;28;20204;-62
2023/01/06 09:14:52;;;;;;;5.10;2.47;;;;;;;19.13;56.91;101019.69;5000883;28;20174;-62
2023/01/06 09:17:17;;;;;;;4.27;1.93;;;;;;;19.16;56.85;101021.81;5001455;28;20212;-62
2023/01/06 09:19:42;;;;;;;4.67;2.10;;;;;;;19.17;56.63;101025.50;5000836;28;20181;-62
2023/01/06 09:22:08;;;;;;;3.90;2.00;;;;;;;19.20;56.69;101031.34;4999412;28;20165;-62
2023/01/06 09:24:33;;;;;;;3.90;2.00;;;;;;;19.19;56.72;101038.25;5000302;28;20174;-62
2023/01/06 09:26:59;;;;;;;4.37;2.40;;;;;;;19.18;56.72;101030.88;5002588;28;20178;-63
2023/01/06 09:29:24;;;;;;;3.57;2.23;;;;;;;19.18;56.98;101036.59;4999385;28;20174;-62
2023/01/06 09:31:49;;;;;;;7.73;2.40;;;;;;;19.13;56.97;101031.16;5000983;28;20186;-62
2023/01/06 09:34:15;;;;;;;5.20;2.33;;;;;;;19.15;57.02;101033.63;5002805;28;20207;-62
2023/01/06 09:36:40;;;;;;;6.73;2.10;;;;;;;19.18;56.71;101033.75;4983126;28;20186;-62
2023/01/06 09:39:06;;;;;;;4.20;2.10;;;;;;;19.18;56.72;101030.88;4999845;28;20755;-62
2023/01/06 09:41:55;;;;;;;3.47;2.07;;;;;;;19.15;56.75;101036.47;5000137;28;20177;-62
2023/01/06 09:44:41;;;;;;;4.50;2.63;;;;;;;19.17;56.73;101029.19;5004277;28;20787;-62
2023/01/06 09:47:06;;;;;;;4.80;2.60;;;;;;;19.19;56.69;101026.81;5001471;28;20436;-62
2023/01/06 09:49:45;;;;;;;3.70;2.03;;;;;;;19.15;56.74;101031.59;4982640;28;21056;-62
2023/01/06 09:52:27;;;;;;;7.37;2.00;;;;;;;19.15;56.80;101025.88;4947573;28;20600;-62
2023/01/06 09:54:56;;;;;;;5.73;2.63;;;;;;;19.16;56.85;101013.22;4980661;28;20465;-62
2023/01/06 09:57:31;;;;;;;5.63;2.80;;;;;;;19.17;56.80;101016.94;4963605;28;20512;-62
2023/01/06 10:00:02;;;;;;;4.50;2.10;;;;;;;19.15;56.78;101002.13;4962758;28;20489;-62
2023/01/06 10:02:35;;;;;;;4.80;1.90;;;;;;;19.14;56.72;100998.47;5005731;28;20436;-62
2023/01/06 10:05:01;;;;;;;3.67;2.27;;;;;;;19.14;56.68;101007.06;4998919;28;20460;-62
2023/01/06 10:07:41;;;;;;;4.07;2.07;;;;;;;19.19;56.57;100997.34;4997567;28;20436;-62
2023/01/06 10:10:19;;;;;;;5.27;2.27;;;;;;;19.15;56.71;101002.13;5006196;28;20188;-62
2023/01/06 10:13:08;;;;;;;4.77;2.40;;;;;;;19.14;57.05;100995.59;5017104;28;20895;-62
2023/01/06 10:16:13;;;;;;;4.10;2.00;;;;;;;19.19;56.72;100989.59;5001644;28;20405;-62
2023/01/06 10:18:54;;;;;;;3.90;2.33;;;;;;;19.16;56.39;100990.31;5009838;28;20477;-62
2023/01/06 10:21:48;;;;;;;5.33;2.33;;;;;;;19.20;56.58;100988.38;4985576;28;20409;-62
2023/01/06 10:24:34;;;;;;;2.70;1.73;;;;;;;19.20;56.76;100993.28;5018360;28;20418;-62
2023/01/06 10:27:20;;;;;;;7.10;2.27;;;;;;;19.18;56.83;100990.81;5016649;28;20430;-62
2023/01/06 10:29:46;;;;;;;4.30;2.00;;;;;;;19.17;56.72;100985.44;4960125;28;20514;-63
2023/01/06 10:32:16;;;;;;;5.73;2.40;;;;;;;19.16;56.73;100987.47;4979009;28;20445;-63
2023/01/06 10:34:43;;;;;;;6.00;2.03;;;;;;;19.15;57.08;100990.69;5019929;28;20256;-63
2023/01/06 10:37:08;;;;;;;4.13;2.13;;;;;;;19.16;56.74;100987.47;5040885;28;20429;-63
2023/01/06 10:39:34;;;;;;;4.00;1.90;;;;;;;19.18;56.64;100987.09;5021914;28;20522;-63
2023/01/06 10:44:56;;;;;;;4.23;2.20;;;;;;;19.22;56.68;100986.00;5008147;28;20259;-63
2023/01/06 10:47:31;;;;;;;4.10;1.63;;;;;;;19.18;56.79;100987.09;5012378;28;20451;-63
2023/01/06 10:49:56;;;;;;;3.83;2.00;;;;;;;19.19;56.57;100978.16;4988971;28;20157;-63
2023/01/06 10:52:22;;;;;;;4.23;2.10;;;;;;;19.20;56.63;100979.81;5014418;28;20468;-62
2023/01/06 10:54:52;;;;;;;4.90;1.90;;;;;;;19.17;56.81;100983.38;4983296;28;20544;-62
2023/01/06 10:57:25;;;;;;;4.30;2.33;;;;;;;19.20;56.80;100985.53;4967626;28;20170;-63
2023/01/06 11:00:11;;;;;;;4.30;1.97;;;;;;;19.17;56.82;100988.31;5001414;28;20416;-63
2023/01/06 11:02:41;;;;;;;4.73;2.00;;;;;;;19.16;56.74;100981.72;5021581;28;20419;-63
2023/01/06 11:05:11;;;;;;;3.93;1.77;;;;;;;19.15;56.76;100985.81;5002081;28;20468;-63
2023/01/06 11:07:37;;;;;;;4.13;2.10;;;;;;;19.19;56.81;100985.88;5008871;28;20500;-62
2023/01/06 11:10:13;;;;;;;4.07;1.73;;;;;;;19.23;56.67;100981.97;5021702;28;20401;-62
2023/01/06 11:12:39;;;;;;;4.33;2.40;;;;;;;19.21;56.54;100987.19;5018651;28;20211;-62
2023/01/06 11:15:07;;;;;;;3.13;1.67;;;;;;;19.18;56.87;100985.09;4988622;28;20436;-62
2023/01/06 11:17:33;;;;;;;5.00;1.83;;;;;;;19.20;56.56;100994.13;5022158;28;20224;-62
2023/01/06 11:20:16;;;;;;;4.17;2.23;;;;;;;19.19;56.71;100985.88;5022003;28;20453;-62
2023/01/06 11:22:42;;;;;;;3.73;1.83;;;;;;;19.19;56.79;100986.75;5011844;28;20227;-62
2023/01/06 11:25:19;;;;;;;3.03;1.90;;;;;;;19.18;56.75;100992.81;5002611;28;20893;-62
2023/01/06 11:28:09;;;;;;;3.80;2.00;;;;;;;19.16;56.79;100992.38;5001073;28;20186;-62
2023/01/06 11:30:57;;;;;;;3.40;1.90;;;;;;;19.18;56.82;100992.81;4989077;28;20418;-62
2023/01/06 11:33:24;;;;;;;3.30;2.00;;;;;;;19.18;56.86;100995.69;5017357;28;20467;-62
2023/01/06 11:35:50;;;;;;;5.03;2.20;;;;;;;19.18;56.78;100993.66;4986057;28;20474;-62
2023/01/06 11:38:17;;;;;;;3.43;2.00;;;;;;;19.18;56.86;100982.22;4991401;28;20445;-63
2023/01/06 11:40:43;;;;;;;3.20;2.03;;;;;;;19.16;56.80;100978.88;5003814;28;20245;-64